Time;durP1;ratioP1;P1;durP2;ratioP2;P2;SDS_P1;SDS_P2;PMS_P1;PMS_P2;Temp;Humidity;BMP_temperature;BMP_pressure;BME280_temperature;BME280_humidity;BME280_pressure;Samples;Min_cycle;Max_cycle;Signal;HPM_P1;HPM_P2
2022/06/05 17:33:22;;;;;;;0.30;0.30;;;20.40;76.90;;;;;;5124712;27;20371;-93
2022/06/05 17:36:18;;;;;;;0.10;0.10;;;20.30;76.90;;;;;;5090585;28;20043;-91
2022/06/05 17:38:59;;;;;;;0.17;0.17;;;20.30;77.40;;;;;;5090672;28;20058;-95
2022/06/05 17:41:42;;;;;;;0.52;0.20;;;20.30;77.60;;;;;;5090379;28;20020;-92
2022/06/05 17:44:26;;;;;;;0.00;0.00;;;20.30;77.00;;;;;;5090311;28;20020;-94
2022/06/05 17:47:07;;;;;;;0.52;0.52;;;20.30;76.50;;;;;;5090301;28;20478;-93
2022/06/05 17:49:40;;;;;;;0.65;0.28;;;20.40;76.00;;;;;;5090106;28;20364;-94
2022/06/05 17:52:17;;;;;;;0.88;0.20;;;20.30;75.80;;;;;;5092874;28;20028;-93
2022/06/05 17:54:53;;;;;;;0.35;0.35;;;20.40;75.20;;;;;;5093938;28;20024;-90
2022/06/05 17:57:24;;;;;;;0.03;0.03;;;20.30;75.30;;;;;;5094597;28;20501;-95
2022/06/05 18:00:14;;;;;;;0.20;0.20;;;20.40;75.60;;;;;;5091768;28;20025;-91
2022/06/05 18:02:54;;;;;;;0.28;0.28;;;20.40;75.90;;;;;;5094368;28;20088;-94
2022/06/05 18:05:26;;;;;;;0.35;0.35;;;20.40;76.30;;;;;;5093033;28;20050;-90
2022/06/05 18:08:17;;;;;;;0.28;0.28;;;20.40;76.50;;;;;;5091885;28;20105;-92
2022/06/05 18:10:48;;;;;;;0.17;0.17;;;20.30;76.70;;;;;;5095737;28;20533;-93
2022/06/05 18:13:20;;;;;;;0.00;0.00;;;20.30;77.20;;;;;;5090332;28;20494;-93
2022/06/05 18:15:58;;;;;;;0.60;0.38;;;20.30;77.30;;;;;;5093630;28;20082;-95
2022/06/05 18:18:29;;;;;;;9.60;8.13;;;20.30;77.80;;;;;;5093562;28;20052;-92
2022/06/05 18:21:03;;;;;;;7.68;5.85;;;20.30;78.10;;;;;;5094188;28;20017;-95
2022/06/05 18:23:48;;;;;;;5.70;5.10;;;20.30;78.30;;;;;;5095322;28;20036;-95
2022/06/05 18:26:51;;;;;;;1.35;1.35;;;20.30;78.10;;;;;;5096705;28;20020;-92
2022/06/05 18:29:35;;;;;;;9.07;1.80;;;20.40;77.80;;;;;;5090594;28;20077;-88
2022/06/05 18:32:25;;;;;;;1.15;1.13;;;20.50;77.90;;;;;;5093349;28;20052;-89
2022/06/05 18:35:05;;;;;;;2.90;2.70;;;20.50;77.60;;;;;;5090997;28;20029;-89
2022/06/05 18:40:36;;;;;;;12.25;11.07;;;20.50;77.70;;;;;;5095892;28;20082;-90
2022/06/05 18:43:06;;;;;;;1.98;1.88;;;20.50;77.80;;;;;;5086958;28;20033;-91
2022/06/05 18:45:37;;;;;;;4.28;3.80;;;20.50;77.50;;;;;;5082520;28;20413;-92
2022/06/05 18:48:09;;;;;;;3.78;2.88;;;20.50;77.40;;;;;;5077870;28;20035;-91
2022/06/05 18:50:38;;;;;;;0.82;0.75;;;20.40;77.40;;;;;;5078294;28;20045;-90
2022/06/05 18:53:06;;;;;;;1.75;1.23;;;20.40;77.90;;;;;;5080918;28;20025;-90
2022/06/05 18:55:39;;;;;;;0.90;0.90;;;20.30;78.40;;;;;;5079852;28;20024;-90
2022/06/05 18:58:36;;;;;;;0.57;0.57;;;20.30;78.40;;;;;;5079345;28;20025;-90
2022/06/05 19:01:26;;;;;;;1.65;1.55;;;20.20;78.40;;;;;;5067344;28;20062;-90
2022/06/05 19:04:13;;;;;;;5.22;1.75;;;20.10;78.50;;;;;;5079955;28;20028;-93
2022/06/05 19:06:43;;;;;;;1.45;1.38;;;20.10;78.60;;;;;;5077868;28;20120;-88
2022/06/05 19:09:22;;;;;;;4.28;1.85;;;20.10;79.40;;;;;;5075557;28;20032;-89
2022/06/05 19:11:56;;;;;;;1.65;0.98;;;20.00;79.10;;;;;;5075408;28;20028;-90
2022/06/05 19:15:03;;;;;;;0.20;0.20;;;20.00;79.20;;;;;;5075571;28;20078;-88
2022/06/05 19:17:36;;;;;;;0.50;0.50;;;19.90;79.10;;;;;;5063749;28;20036;-91
2022/06/05 19:20:23;;;;;;;0.00;0.00;;;19.90;78.90;;;;;;5076031;28;20027;-88
2022/06/05 19:22:51;;;;;;;0.03;0.03;;;19.80;79.00;;;;;;5075344;28;20037;-88
2022/06/05 19:25:22;;;;;;;0.65;0.52;;;19.80;79.20;;;;;;5075237;28;20032;-86
2022/06/05 19:27:56;;;;;;;0.03;0.03;;;19.80;79.40;;;;;;5075268;28;20032;-87
2022/06/05 19:30:30;;;;;;;0.57;0.57;;;19.70;79.50;;;;;;5075362;28;20109;-87
2022/06/05 19:33:20;;;;;;;0.63;0.63;;;19.70;79.60;;;;;;5080425;28;20493;-87
2022/06/05 19:38:41;;;;;;;0.68;0.68;;;19.60;80.10;;;;;;5076681;28;20057;-88
2022/06/05 19:41:17;;;;;;;0.15;0.15;;;19.60;80.60;;;;;;5075083;28;20024;-88
2022/06/05 19:44:10;;;;;;;0.00;0.00;;;19.50;80.50;;;;;;5079943;28;20025;-88
2022/06/05 19:46:38;;;;;;;0.20;0.20;;;19.50;80.60;;;;;;5075069;28;20371;-86
2022/06/05 19:49:42;;;;;;;0.80;0.80;;;19.40;81.20;;;;;;5075846;28;20172;-88
2022/06/05 19:52:17;;;;;;;0.10;0.10;;;19.40;80.90;;;;;;5075405;28;20470;-89
2022/06/05 19:54:44;;;;;;;0.77;0.77;;;19.40;80.60;;;;;;5073487;28;20024;-87
2022/06/05 19:57:20;;;;;;;0.75;0.75;;;19.40;80.30;;;;;;5075617;28;20020;-88
2022/06/05 20:00:09;;;;;;;0.10;0.10;;;19.40;80.40;;;;;;5074549;28;20111;-89
2022/06/05 20:02:37;;;;;;;0.07;0.07;;;19.40;80.40;;;;;;5072700;28;20036;-88
2022/06/05 20:05:04;;;;;;;0.13;0.13;;;19.50;80.40;;;;;;5074681;28;20035;-88
2022/06/05 20:07:43;;;;;;;0.20;0.10;;;19.50;80.30;;;;;;5076203;28;20032;-90
2022/06/05 20:10:29;;;;;;;0.30;0.22;;;19.50;80.30;;;;;;5075575;28;20028;-90
2022/06/05 20:13:02;;;;;;;0.10;0.10;;;19.50;80.00;;;;;;5074291;28;20547;-89
2022/06/05 20:15:35;;;;;;;0.38;0.38;;;19.40;79.80;;;;;;5074178;28;20150;-89
2022/06/05 20:18:24;;;;;;;0.15;0.15;;;19.50;79.70;;;;;;5075370;28;20479;-89
2022/06/05 20:20:58;;;;;;;0.38;0.38;;;19.50;79.40;;;;;;5074204;28;20056;-89
2022/06/05 20:23:53;;;;;;;0.00;0.00;;;19.50;79.50;;;;;;5075168;28;20087;-89
2022/06/05 20:26:46;;;;;;;0.20;0.20;;;19.50;79.30;;;;;;5075421;28;20063;-88
2022/06/05 20:29:26;;;;;;;0.00;0.00;;;19.50;79.50;;;;;;5074327;28;20035;-89
2022/06/05 20:31:53;;;;;;;1.05;0.88;;;19.50;80.00;;;;;;5074351;28;20060;-90
2022/06/05 20:34:28;;;;;;;0.15;0.13;;;19.40;80.20;;;;;;5074954;28;20017;-89
2022/06/05 20:37:08;;;;;;;0.60;0.60;;;19.40;80.10;;;;;;5073724;28;20032;-89
2022/06/05 20:39:42;;;;;;;0.30;0.30;;;19.40;80.00;;;;;;5074011;28;20024;-89
2022/06/05 20:42:42;;;;;;;0.22;0.22;;;19.40;79.90;;;;;;5075291;28;20028;-90
2022/06/05 20:45:20;;;;;;;0.10;0.10;;;19.30;79.90;;;;;;5073668;28;20395;-90
2022/06/05 20:47:49;;;;;;;0.43;0.35;;;19.20;80.80;;;;;;5073499;28;20086;-90
2022/06/05 20:50:27;;;;;;;0.70;0.70;;;19.20;80.70;;;;;;5073609;28;20025;-89
2022/06/05 20:53:15;;;;;;;0.17;0.17;;;19.10;80.70;;;;;;5073514;28;20032;-90
2022/06/05 20:55:44;;;;;;;0.35;0.35;;;19.00;80.70;;;;;;5073583;28;20021;-90
2022/06/05 20:58:35;;;;;;;0.15;0.15;;;19.00;80.60;;;;;;5073571;28;20551;-90
2022/06/05 21:01:05;;;;;;;0.70;0.70;;;18.90;80.50;;;;;;5074483;28;20020;-90
2022/06/05 21:09:26;;;;;;;0.28;0.28;;;18.60;80.70;;;;;;5074822;28;20032;-90
2022/06/05 21:17:27;;;;;;;1.17;0.40;;;18.50;81.70;;;;;;5075020;28;20024;-88
2022/06/05 21:19:59;;;;;;;0.10;0.10;;;18.40;82.20;;;;;;5073566;28;20074;-87
2022/06/05 21:22:28;;;;;;;0.50;0.50;;;18.40;81.90;;;;;;5074493;28;20081;-90
2022/06/05 21:25:04;;;;;;;1.00;0.55;;;18.30;81.90;;;;;;5073028;28;20028;-88
2022/06/05 21:27:50;;;;;;;0.38;0.38;;;18.30;81.90;;;;;;5074138;28;20024;-89
2022/06/05 21:30:24;;;;;;;0.40;0.40;;;18.30;82.40;;;;;;5073140;28;20421;-89
2022/06/05 21:32:57;;;;;;;0.10;0.10;;;18.20;82.70;;;;;;5073929;28;20441;-89
2022/06/05 21:35:30;;;;;;;0.20;0.20;;;18.20;83.60;;;;;;5073051;28;20021;-89
2022/06/05 21:37:59;;;;;;;0.25;0.25;;;18.10;83.90;;;;;;5073329;28;20409;-89
2022/06/05 21:40:26;;;;;;;0.15;0.15;;;18.00;84.40;;;;;;5073278;28;20546;-90
2022/06/05 21:42:54;;;;;;;0.20;0.20;;;18.00;85.30;;;;;;5073074;28;20028;-89
2022/06/05 21:45:23;;;;;;;0.85;0.85;;;17.90;85.30;;;;;;5074121;28;20029;-88
2022/06/05 21:47:52;;;;;;;0.63;0.63;;;17.80;85.60;;;;;;5073002;28;20031;-88
2022/06/05 21:50:25;;;;;;;0.08;0.08;;;17.80;86.10;;;;;;5073309;28;20026;-88
2022/06/05 21:52:52;;;;;;;0.30;0.30;;;17.80;86.00;;;;;;5073064;28;20082;-88
2022/06/05 21:55:28;;;;;;;0.05;0.05;;;17.70;86.50;;;;;;5072656;28;20077;-88
2022/06/05 21:58:01;;;;;;;0.17;0.17;;;17.70;87.20;;;;;;5074193;28;20052;-89
2022/06/05 22:00:40;;;;;;;0.82;0.60;;;17.70;86.70;;;;;;5074092;28;20021;-89
2022/06/05 22:03:16;;;;;;;0.10;0.10;;;17.60;87.60;;;;;;5073010;28;20064;-89
2022/06/05 22:05:42;;;;;;;0.17;0.17;;;17.60;88.10;;;;;;5073191;28;20029;-89
2022/06/05 22:08:10;;;;;;;0.60;0.60;;;17.60;88.00;;;;;;5072942;28;20056;-88
2022/06/05 22:10:35;;;;;;;0.10;0.10;;;17.50;89.10;;;;;;5073984;28;20021;-89
2022/06/05 22:13:02;;;;;;;0.30;0.30;;;17.50;89.60;;;;;;5072735;28;20143;-88
2022/06/05 22:15:29;;;;;;;0.28;0.28;;;17.50;89.20;;;;;;5074050;28;20024;-89
2022/06/05 22:17:55;;;;;;;0.70;0.40;;;17.40;89.00;;;;;;5073511;28;20367;-89
2022/06/05 22:20:21;;;;;;;0.20;0.20;;;17.40;89.00;;;;;;5076582;28;20032;-89
2022/06/05 22:22:47;;;;;;;0.65;0.55;;;17.40;89.40;;;;;;5076599;28;20036;-89
2022/06/05 22:25:13;;;;;;;0.03;0.00;;;17.30;89.80;;;;;;5076469;28;20029;-88
2022/06/05 22:27:40;;;;;;;0.10;0.10;;;17.30;90.10;;;;;;5076767;28;20090;-88
2022/06/05 22:30:08;;;;;;;0.00;0.00;;;17.30;90.30;;;;;;5076590;28;20024;-88
2022/06/05 22:32:34;;;;;;;0.00;0.00;;;17.20;90.20;;;;;;5076191;28;20076;-88
2022/06/05 22:35:00;;;;;;;0.00;0.00;;;17.20;90.10;;;;;;5076430;28;20418;-89
2022/06/05 22:37:26;;;;;;;0.17;0.17;;;17.20;90.10;;;;;;5077297;28;20016;-89
2022/06/05 22:39:52;;;;;;;0.00;0.00;;;17.20;90.60;;;;;;5077438;28;20017;-89
2022/06/05 22:42:18;;;;;;;0.00;0.00;;;17.10;90.90;;;;;;5076300;28;20028;-89
2022/06/05 22:44:44;;;;;;;1.30;1.20;;;17.10;91.00;;;;;;5077302;28;20058;-89
2022/06/05 22:47:10;;;;;;;0.40;0.40;;;17.10;90.90;;;;;;5077506;28;20033;-89
2022/06/05 22:49:36;;;;;;;0.20;0.20;;;17.10;91.60;;;;;;5077443;28;20028;-89
2022/06/05 22:52:03;;;;;;;0.60;0.25;;;17.10;91.10;;;;;;5076139;28;20058;-89
2022/06/05 22:54:29;;;;;;;0.25;0.25;;;17.00;91.30;;;;;;5075980;28;20020;-88
2022/06/05 22:56:55;;;;;;;0.22;0.22;;;17.00;92.20;;;;;;5075952;28;20027;-89
2022/06/05 22:59:21;;;;;;;0.20;0.10;;;16.80;92.70;;;;;;5075748;28;20374;-89
2022/06/05 23:01:50;;;;;;;0.00;0.00;;;16.80;92.90;;;;;;5075932;28;20024;-89
2022/06/05 23:04:17;;;;;;;0.20;0.20;;;16.70;93.40;;;;;;5076076;28;20028;-89
2022/06/05 23:06:42;;;;;;;0.00;0.00;;;16.70;92.90;;;;;;5075958;28;20036;-89
2022/06/05 23:09:10;;;;;;;0.45;0.45;;;16.70;93.50;;;;;;5076952;28;20029;-88
2022/06/05 23:11:36;;;;;;;0.00;0.00;;;16.80;93.80;;;;;;5075567;28;20116;-88
2022/06/05 23:14:02;;;;;;;0.30;0.30;;;16.80;93.80;;;;;;5075727;28;20447;-89
2022/06/05 23:16:29;;;;;;;0.30;0.28;;;16.80;93.80;;;;;;5075523;28;20115;-88
2022/06/05 23:21:40;;;;;;;0.20;0.20;;;16.80;94.20;;;;;;5076804;28;20035;-88
2022/06/05 23:24:07;;;;;;;0.13;0.13;;;16.90;94.20;;;;;;5075367;28;20036;-88
2022/06/05 23:26:32;;;;;;;0.10;0.10;;;16.80;94.40;;;;;;5075386;28;20024;-88
2022/06/05 23:28:59;;;;;;;0.30;0.22;;;16.90;94.80;;;;;;5075320;28;20055;-88
2022/06/05 23:31:26;;;;;;;0.25;0.20;;;16.90;94.60;;;;;;5075088;28;20055;-88
2022/06/05 23:33:52;;;;;;;0.10;0.10;;;16.90;94.80;;;;;;5075320;28;20020;-88
2022/06/05 23:36:21;;;;;;;0.35;0.35;;;16.80;95.70;;;;;;5075175;28;20017;-88
2022/06/05 23:38:46;;;;;;;0.52;0.52;;;16.80;95.80;;;;;;5076366;28;20027;-88
2022/06/05 23:41:18;;;;;;;0.60;0.60;;;16.80;95.90;;;;;;5075204;28;20024;-89
2022/06/05 23:43:44;;;;;;;0.40;0.40;;;16.80;96.40;;;;;;5076025;28;20082;-88
2022/06/05 23:46:16;;;;;;;0.10;0.10;;;16.80;96.30;;;;;;5075146;28;20115;-89
2022/06/05 23:48:41;;;;;;;0.52;0.52;;;16.80;96.50;;;;;;5074862;28;20057;-89
2022/06/05 23:51:11;;;;;;;1.27;0.63;;;16.80;96.50;;;;;;5074867;28;20115;-89
2022/06/05 23:53:38;;;;;;;0.70;0.70;;;16.80;96.40;;;;;;5074902;28;20021;-89
2022/06/05 23:56:13;;;;;;;0.35;0.35;;;16.80;96.60;;;;;;5074749;28;20138;-88
2022/06/05 23:58:41;;;;;;;0.35;0.22;;;16.70;97.10;;;;;;5074856;28;20475;-89
